Stations météo

réclame
Mon MeteoGroup
Navacerrada, Espagne (8215): Température de l'air & dewpoint: 20.04.2018 11:00:00 - 26.04.2018 11:00:00 (CEST)Navacerrada, Espagne (8215): Vitesse du vent: 20.04.2018 11:00:00 - 26.04.2018 11:00:00 (CEST)Navacerrada, Espagne (8215): Direction du vent: 20.04.2018 11:00:00 - 26.04.2018 11:00:00 (CEST)Navacerrada, Espagne (8215): visibility: 20.04.2018 11:00:00 - 26.04.2018 11:00:00 (CEST)Navacerrada, Espagne (8215): Quantités de précipitations: 20.04.2018 11:00:00 - 26.04.2018 11:00:00 (CEST)
Date & Time tt [°C] td [°C] ff [km/h] ff [knt] dd vv [km] rr [mm]
26.04.2018 11:00:00 - - - - - 20 -
26.04.2018 10:00:00 12,9 3,0 4 2 NNW 17 0,0
26.04.2018 09:00:00 11,4 2,4 8 4 NNW 17 0,0
26.04.2018 08:00:00 10,3 1,6 8 4 NNW 15 -
26.04.2018 07:00:00 9,5 1,9 5 3 NNW 17 0,0
26.04.2018 06:00:00 10,6 0,9 4 2 W 15 0,0
26.04.2018 05:00:00 9,5 1,1 15 8 SSE 19 -
26.04.2018 04:00:00 10,6 1,4 4 2 SSW 17 0,0
26.04.2018 03:00:00 10,2 2,5 9 5 SW 18 0,0
26.04.2018 02:00:00 9,1 2,4 13 7 SE 19 -
26.04.2018 01:00:00 8,7 1,4 15 8 SSE 19 0,0
26.04.2018 00:00:00 8,6 2,8 18 10 SSE 19 0,0
25.04.2018 23:00:00 11,4 2,7 4 2 ESE 12 -
25.04.2018 22:00:00 12,0 3,5 5 3 N 12 0,0
25.04.2018 21:00:00 12,9 5,6 9 5 NNW 13 0,0
25.04.2018 20:00:00 14,6 6,7 13 7 NW 2,0 -
25.04.2018 19:00:00 15,5 -0,7 11 6 NNE 17 0,0
25.04.2018 18:00:00 15,0 0,4 15 8 ENE 17 0,0
25.04.2018 17:00:00 15,2 4,8 13 7 N 20 -
25.04.2018 16:00:00 16,4 5,6 11 6 NNW 17 0,0
25.04.2018 15:00:00 15,8 5,7 15 8 NW 16 0,0
25.04.2018 14:00:00 16,2 6,3 9 5 N 20 -
25.04.2018 13:00:00 15,1 5,3 11 6 NW 15 0,0
25.04.2018 12:00:00 14,9 4,6 11 6 NW 16 0,0
25.04.2018 11:00:00 13,8 2,7 8 4 NNW 15 -
25.04.2018 10:00:00 12,3 1,3 11 6 N 15 0,0
25.04.2018 09:00:00 12,4 1,7 4 2 E 17 0,0
25.04.2018 08:00:00 11,0 0,1 4 2 SW 20 -
25.04.2018 07:00:00 10,7 0,1 8 4 NE 16 0,0
25.04.2018 06:00:00 10,6 0,6 8 4 NE 15 0,0
25.04.2018 05:00:00 10,2 1,0 13 7 ENE 16 -
25.04.2018 04:00:00 10,7 0,4 2 1 ENE 14 0,0
25.04.2018 03:00:00 10,2 1,0 5 3 ESE 16 0,0
25.04.2018 02:00:00 10,7 1,5 4 2 SSW 16 -
25.04.2018 01:00:00 10,5 1,6 15 8 SE 17 0,0
25.04.2018 00:00:00 10,9 1,4 4 2 SE 14 0,0
24.04.2018 23:00:00 11,4 1,6 4 2 WSW 13 -
24.04.2018 22:00:00 11,7 0,7 4 2 NW 13 0,0
24.04.2018 21:00:00 12,0 0,1 5 3 NNE 12 0,0
24.04.2018 20:00:00 12,2 1,5 9 5 SE 15 -
24.04.2018 19:00:00 13,1 2,9 16 9 SSE 14 0,0
24.04.2018 18:00:00 13,6 3,1 15 8 SSE 15 0,0
24.04.2018 17:00:00 14,6 2,8 11 6 SSE 15 -
24.04.2018 16:00:00 16,7 -1,4 15 8 SSE 13 0,0
24.04.2018 15:00:00 16,0 -1,6 11 6 E 13 0,0
24.04.2018 14:00:00 16,1 -2,0 9 5 SE 15 -
24.04.2018 13:00:00 16,2 -1,4 8 4 SE 18 0,0
24.04.2018 12:00:00 14,1 -3,2 15 8 SSE 19 0,0
24.04.2018 11:00:00 12,7 -4,9 15 8 SSE 1,2 -
24.04.2018 10:00:00 11,5 -5,1 15 8 SSE 20 0,0
24.04.2018 09:00:00 9,6 -3,4 15 8 ESE 19 0,0
24.04.2018 08:00:00 7,5 -2,2 24 13 ESE 12 -
24.04.2018 07:00:00 7,9 -2,2 26 14 ESE 19 0,0
24.04.2018 06:00:00 7,9 3,2 21 11 SE 17 0,0
24.04.2018 05:00:00 7,8 4,7 26 14 ESE 14 -
24.04.2018 04:00:00 8,1 4,3 18 10 E 14 0,0
24.04.2018 03:00:00 7,1 4,2 13 7 E 13 0,0
24.04.2018 02:00:00 8,1 5,9 15 8 SSE 13 -
24.04.2018 01:00:00 7,5 4,8 18 10 ESE 13 0,0
24.04.2018 00:00:00 7,5 4,4 9 5 E 13 0,0
23.04.2018 23:00:00 8,8 4,2 16 9 E 14 -
23.04.2018 22:00:00 10,0 3,9 11 6 SE 13 0,0
23.04.2018 21:00:00 10,2 2,8 13 7 SSE 14 0,0
23.04.2018 20:00:00 11,1 2,6 9 5 SE 10 -
23.04.2018 19:00:00 11,9 5,5 21 11 SSE 17 0,0
23.04.2018 18:00:00 12,8 3,7 11 6 S 15 0,0
23.04.2018 17:00:00 13,4 3,5 13 7 SSE 10 -
23.04.2018 16:00:00 11,8 4,5 13 7 ESE 19 0,0
23.04.2018 15:00:00 13,9 4,7 13 7 ESE 19 0,0
23.04.2018 14:00:00 14,4 3,8 13 7 E 10 -
23.04.2018 13:00:00 14,1 3,5 5 3 ESE 19 0,0
23.04.2018 12:00:00 12,4 4,8 4 2 N 19 0,0
23.04.2018 11:00:00 10,9 3,9 4 2 S 15 -
23.04.2018 10:00:00 7,6 4,2 26 14 SSE 18 0,0
23.04.2018 09:00:00 7,3 3,3 34 18 SSE 19 0,0
23.04.2018 08:00:00 8,2 2,4 26 14 S 10 -
23.04.2018 07:00:00 7,6 1,4 24 13 SSE 17 0,0
23.04.2018 06:00:00 6,7 0,6 26 14 SE 18 0,0
23.04.2018 05:00:00 6,3 2,0 26 14 SSE 18 -
23.04.2018 04:00:00 6,7 4,5 28 15 SSE 13 0,0
23.04.2018 03:00:00 6,5 4,5 28 15 SSE 12 0,0
23.04.2018 02:00:00 7,4 4,5 24 13 SE 15 -
23.04.2018 01:00:00 7,8 4,6 34 18 SE 15 0,0
23.04.2018 00:00:00 8,9 3,9 24 13 SSE 14 0,0
22.04.2018 23:00:00 8,3 4,1 26 14 SE 15 -
22.04.2018 22:00:00 9,2 2,5 16 9 SE 14 0,0
22.04.2018 21:00:00 9,1 2,9 13 7 SSE 14 0,0
22.04.2018 20:00:00 10,3 7,5 4 2 SW 10 -
22.04.2018 19:00:00 11,1 1,9 9 5 SSW 13 0,0
22.04.2018 18:00:00 11,5 1,4 15 8 SSE 14 0,0
22.04.2018 17:00:00 11,1 2,6 21 11 SSE 10 -
22.04.2018 16:00:00 9,9 6,1 5 3 SSE 14 0,4
22.04.2018 15:00:00 10,9 4,6 18 10 SE 12 0,0
22.04.2018 14:00:00 13,2 4,3 11 6 SE 10 -
22.04.2018 13:00:00 12,9 4,3 13 7 SSE 14 0,0
22.04.2018 12:00:00 11,9 4,8 8 4 E 15 0,0
22.04.2018 11:00:00 9,4 4,8 5 3 ENE 10 -
22.04.2018 10:00:00 8,4 4,4 13 7 E 14 0,0
22.04.2018 09:00:00 7,3 4,3 4 2 NE 14 0,0
22.04.2018 08:00:00 5,7 3,9 9 5 ENE 10 -
22.04.2018 07:00:00 5,7 4,0 8 4 WNW 12 0,0
22.04.2018 06:00:00 6,0 4,3 8 4 N 11 0,0
22.04.2018 05:00:00 6,1 3,9 9 5 ESE 12 -
22.04.2018 04:00:00 5,2 3,8 16 9 S 10 0,0
22.04.2018 03:00:00 5,0 4,3 31 17 SSE 8 0,0
22.04.2018 02:00:00 5,8 4,8 29 16 SSE 9 -
22.04.2018 01:00:00 6,1 4,6 29 16 SSE 11 0,0
22.04.2018 00:00:00 6,2 4,0 29 16 SSE 13 0,0
21.04.2018 23:00:00 6,8 3,6 24 13 SSE 14 -
21.04.2018 22:00:00 7,2 2,9 18 10 SSE 16 0,0
21.04.2018 21:00:00 6,6 3,0 16 9 ESE 14 0,0
21.04.2018 20:00:00 6,9 3,3 21 11 SE 10 -
21.04.2018 19:00:00 8,2 3,0 16 9 S 15 0,0
21.04.2018 18:00:00 7,6 2,9 21 11 SE 15 0,0
21.04.2018 17:00:00 7,7 1,5 28 15 SE 9 -
21.04.2018 16:00:00 7,2 1,9 35 19 SSE 16 0,0
21.04.2018 15:00:00 8,4 1,1 22 12 SE 16 0,0
21.04.2018 14:00:00 7,9 0,6 5 3 S 10 -
21.04.2018 13:00:00 6,5 0,0 22 12 SE 18 0,0
21.04.2018 12:00:00 5,8 -0,1 22 12 SSE 16 0,0
21.04.2018 11:00:00 4,5 0,6 31 17 SSE 10 -
21.04.2018 10:00:00 4,7 0,3 34 18 SSE 14 0,0
21.04.2018 09:00:00 4,5 0,4 37 20 SSE 14 0,0
21.04.2018 08:00:00 3,6 1,1 34 18 S 15 -
21.04.2018 07:00:00 3,7 1,1 35 19 SSE 16 0,0
21.04.2018 06:00:00 3,3 2,3 29 16 SSE 13 0,0
21.04.2018 05:00:00 3,4 3,0 24 13 SSE 10 -
21.04.2018 04:00:00 3,4 2,8 31 17 SSE 10 0,0
21.04.2018 03:00:00 3,4 3,0 22 12 SSE 9 0,0
21.04.2018 02:00:00 3,6 2,9 26 14 SE 10 -
21.04.2018 01:00:00 4,1 3,2 37 20 SSE 9 0,0
21.04.2018 00:00:00 4,6 3,4 42 23 SSE 9 0,0
20.04.2018 23:00:00 5,0 3,0 41 22 SSE 12 -
20.04.2018 22:00:00 5,2 3,5 28 15 SSE 11 0,0
20.04.2018 21:00:00 6,4 3,7 11 6 SSE 11 0,0
20.04.2018 20:00:00 7,7 3,2 34 18 SSE 20 -
20.04.2018 19:00:00 8,3 2,9 24 13 SSE 14 0,0
20.04.2018 18:00:00 8,1 3,0 29 16 SSE 14 0,0
20.04.2018 17:00:00 8,3 2,8 34 18 SSE 30 -
20.04.2018 16:00:00 8,5 2,9 26 14 SSE 14 0,0
20.04.2018 15:00:00 7,6 2,9 16 9 SE 13 0,0
20.04.2018 14:00:00 7,3 2,2 28 15 ESE 30 -
20.04.2018 13:00:00 7,5 2,4 22 12 ESE 14 0,0
20.04.2018 12:00:00 7,0 2,3 21 11 ESE 14 0,0
20.04.2018 11:00:00 5,6 2,9 9 5 ESE 15 -

tt = Température de l'air
td = dewpoint
ff = Vitesse du vent
dd = Direction du vent
vv = visibility
rr = Quantités de précipitations

stations d'obs. à proximité